Terminal Aerodrome Forecast
Issued by NWS

Home | Current Version | Previous Version | Text Only | Print | Product List | Glossary On
Versions: 1 2 3 4 5 6 7 8 9 10 11 12 13 14
000
FTAK31 PAJN 032300
TAFAWG
TAF
PAWG 032321Z 0400/0424 32005KT P6SM SCT080 BKN100
     FM041300 13006KT P6SM VCSH OVC060
     FM041900 12007KT P6SM -RA BKN035 OVC050
     FM042100 12007KT 6SM -RA BR BKN030 OVC045
      AMD LTD TO CLD VIS AND WIND 0406/0415=

USA.gov is the U.S. government's official web portal to all federal, state and local government web resources and services.